sensor_id;sensor_type;location;lat;lon;timestamp;P1;durP1;ratioP1;P2;durP2;ratioP2
59193;SDS011;44967;48.598;15.650;2023-12-20T00:00:00;4.57;;;2.80;;
59193;SDS011;44967;48.598;15.650;2023-12-20T00:02:25;5.15;;;3.20;;
59193;SDS011;44967;48.598;15.650;2023-12-20T00:04:51;3.83;;;2.65;;
59193;SDS011;44967;48.598;15.650;2023-12-20T00:07:16;2.42;;;1.55;;
59193;SDS011;44967;48.598;15.650;2023-12-20T00:09:42;1.95;;;1.35;;
59193;SDS011;44967;48.598;15.650;2023-12-20T00:12:08;4.10;;;1.65;;
59193;SDS011;44967;48.598;15.650;2023-12-20T00:14:34;2.28;;;1.20;;
59193;SDS011;44967;48.598;15.650;2023-12-20T00:17:02;1.63;;;0.80;;
59193;SDS011;44967;48.598;15.650;2023-12-20T00:19:28;5.20;;;2.30;;
59193;SDS011;44967;48.598;15.650;2023-12-20T00:21:54;2.63;;;1.20;;
59193;SDS011;44967;48.598;15.650;2023-12-20T00:24:20;1.95;;;1.30;;
59193;SDS011;44967;48.598;15.650;2023-12-20T00:26:46;3.40;;;1.40;;
59193;SDS011;44967;48.598;15.650;2023-12-20T00:29:12;4.28;;;1.95;;
59193;SDS011;44967;48.598;15.650;2023-12-20T00:31:37;5.25;;;2.17;;
59193;SDS011;44967;48.598;15.650;2023-12-20T00:34:03;2.70;;;1.23;;
59193;SDS011;44967;48.598;15.650;2023-12-20T00:36:29;1.38;;;1.17;;
59193;SDS011;44967;48.598;15.650;2023-12-20T00:38:54;1.13;;;0.90;;
59193;SDS011;44967;48.598;15.650;2023-12-20T00:41:20;3.05;;;1.23;;
59193;SDS011;44967;48.598;15.650;2023-12-20T00:43:46;1.25;;;1.00;;
59193;SDS011;44967;48.598;15.650;2023-12-20T00:46:12;0.85;;;0.70;;
59193;SDS011;44967;48.598;15.650;2023-12-20T00:48:37;2.58;;;1.83;;
59193;SDS011;44967;48.598;15.650;2023-12-20T00:51:03;0.98;;;0.90;;
59193;SDS011;44967;48.598;15.650;2023-12-20T00:53:29;1.55;;;0.98;;
59193;SDS011;44967;48.598;15.650;2023-12-20T00:55:55;2.63;;;1.40;;
59193;SDS011;44967;48.598;15.650;2023-12-20T00:58:21;6.72;;;4.43;;
59193;SDS011;44967;48.598;15.650;2023-12-20T01:00:46;9.18;;;4.60;;
59193;SDS011;44967;48.598;15.650;2023-12-20T01:03:12;9.23;;;4.65;;
59193;SDS011;44967;48.598;15.650;2023-12-20T01:05:39;5.30;;;2.63;;
59193;SDS011;44967;48.598;15.650;2023-12-20T01:08:05;4.28;;;2.10;;
59193;SDS011;44967;48.598;15.650;2023-12-20T01:10:31;4.38;;;2.20;;
59193;SDS011;44967;48.598;15.650;2023-12-20T01:12:57;6.45;;;3.40;;
59193;SDS011;44967;48.598;15.650;2023-12-20T01:15:22;5.55;;;3.20;;
59193;SDS011;44967;48.598;15.650;2023-12-20T01:17:48;5.00;;;2.40;;
59193;SDS011;44967;48.598;15.650;2023-12-20T01:20:14;4.22;;;2.88;;
59193;SDS011;44967;48.598;15.650;2023-12-20T01:22:40;3.97;;;1.85;;
59193;SDS011;44967;48.598;15.650;2023-12-20T01:25:08;3.80;;;2.08;;
59193;SDS011;44967;48.598;15.650;2023-12-20T01:27:34;3.45;;;1.75;;
59193;SDS011;44967;48.598;15.650;2023-12-20T01:30:00;4.22;;;1.95;;
59193;SDS011;44967;48.598;15.650;2023-12-20T01:32:25;2.85;;;1.83;;
59193;SDS011;44967;48.598;15.650;2023-12-20T01:34:51;2.75;;;1.42;;
59193;SDS011;44967;48.598;15.650;2023-12-20T01:37:17;3.70;;;1.15;;
59193;SDS011;44967;48.598;15.650;2023-12-20T01:39:42;4.95;;;1.42;;
59193;SDS011;44967;48.598;15.650;2023-12-20T01:42:08;1.73;;;1.10;;
59193;SDS011;44967;48.598;15.650;2023-12-20T01:44:34;2.28;;;1.52;;
59193;SDS011;44967;48.598;15.650;2023-12-20T01:47:00;2.13;;;1.40;;
59193;SDS011;44967;48.598;15.650;2023-12-20T01:49:26;3.70;;;1.20;;
59193;SDS011;44967;48.598;15.650;2023-12-20T01:51:51;2.40;;;1.15;;
59193;SDS011;44967;48.598;15.650;2023-12-20T01:54:17;2.78;;;1.65;;
59193;SDS011;44967;48.598;15.650;2023-12-20T01:56:45;2.97;;;1.90;;
59193;SDS011;44967;48.598;15.650;2023-12-20T01:59:11;2.33;;;1.35;;
59193;SDS011;44967;48.598;15.650;2023-12-20T02:01:38;3.03;;;1.80;;
59193;SDS011;44967;48.598;15.650;2023-12-20T02:04:04;6.40;;;3.40;;
59193;SDS011;44967;48.598;15.650;2023-12-20T02:06:30;7.97;;;4.68;;
59193;SDS011;44967;48.598;15.650;2023-12-20T02:08:59;8.60;;;4.88;;
59193;SDS011;44967;48.598;15.650;2023-12-20T02:11:25;11.63;;;5.30;;
59193;SDS011;44967;48.598;15.650;2023-12-20T02:13:51;9.93;;;5.25;;
59193;SDS011;44967;48.598;15.650;2023-12-20T02:16:18;9.18;;;5.10;;
59193;SDS011;44967;48.598;15.650;2023-12-20T02:18:44;6.55;;;4.68;;
59193;SDS011;44967;48.598;15.650;2023-12-20T02:21:10;10.13;;;4.43;;
59193;SDS011;44967;48.598;15.650;2023-12-20T02:23:35;8.60;;;3.85;;
59193;SDS011;44967;48.598;15.650;2023-12-20T02:26:02;6.75;;;3.80;;
59193;SDS011;44967;48.598;15.650;2023-12-20T02:28:28;5.20;;;2.45;;
59193;SDS011;44967;48.598;15.650;2023-12-20T02:30:55;3.95;;;2.15;;
59193;SDS011;44967;48.598;15.650;2023-12-20T02:33:21;5.85;;;2.15;;
59193;SDS011;44967;48.598;15.650;2023-12-20T02:35:47;3.45;;;2.45;;
59193;SDS011;44967;48.598;15.650;2023-12-20T02:38:13;5.22;;;2.65;;
59193;SDS011;44967;48.598;15.650;2023-12-20T02:40:38;4.40;;;2.97;;
59193;SDS011;44967;48.598;15.650;2023-12-20T02:43:04;3.80;;;2.70;;
59193;SDS011;44967;48.598;15.650;2023-12-20T02:45:30;4.13;;;3.33;;
59193;SDS011;44967;48.598;15.650;2023-12-20T02:47:56;5.20;;;2.83;;
59193;SDS011;44967;48.598;15.650;2023-12-20T02:50:22;4.65;;;3.05;;
59193;SDS011;44967;48.598;15.650;2023-12-20T02:52:48;4.03;;;2.58;;
59193;SDS011;44967;48.598;15.650;2023-12-20T02:55:13;3.65;;;2.33;;
59193;SDS011;44967;48.598;15.650;2023-12-20T02:57:39;3.78;;;2.20;;
59193;SDS011;44967;48.598;15.650;2023-12-20T03:00:08;3.15;;;2.50;;
59193;SDS011;44967;48.598;15.650;2023-12-20T03:02:35;3.10;;;2.05;;
59193;SDS011;44967;48.598;15.650;2023-12-20T03:05:01;2.92;;;2.20;;
59193;SDS011;44967;48.598;15.650;2023-12-20T03:07:27;3.33;;;2.13;;
59193;SDS011;44967;48.598;15.650;2023-12-20T03:09:53;4.85;;;2.65;;
59193;SDS011;44967;48.598;15.650;2023-12-20T03:12:18;5.35;;;1.80;;
59193;SDS011;44967;48.598;15.650;2023-12-20T03:14:44;3.40;;;2.00;;
59193;SDS011;44967;48.598;15.650;2023-12-20T03:17:10;5.28;;;2.50;;
59193;SDS011;44967;48.598;15.650;2023-12-20T03:19:35;5.28;;;2.45;;
59193;SDS011;44967;48.598;15.650;2023-12-20T03:22:01;5.03;;;2.78;;
59193;SDS011;44967;48.598;15.650;2023-12-20T03:24:27;5.70;;;3.22;;
59193;SDS011;44967;48.598;15.650;2023-12-20T03:26:53;2.72;;;2.13;;
59193;SDS011;44967;48.598;15.650;2023-12-20T03:29:18;4.28;;;2.45;;
59193;SDS011;44967;48.598;15.650;2023-12-20T03:31:44;4.90;;;2.42;;
59193;SDS011;44967;48.598;15.650;2023-12-20T03:34:10;6.60;;;2.10;;
59193;SDS011;44967;48.598;15.650;2023-12-20T03:36:37;2.55;;;1.90;;
59193;SDS011;44967;48.598;15.650;2023-12-20T03:39:02;7.30;;;2.40;;
59193;SDS011;44967;48.598;15.650;2023-12-20T03:41:28;3.28;;;2.30;;
59193;SDS011;44967;48.598;15.650;2023-12-20T03:43:54;3.97;;;2.38;;
59193;SDS011;44967;48.598;15.650;2023-12-20T03:46:19;7.57;;;3.20;;
59193;SDS011;44967;48.598;15.650;2023-12-20T03:48:45;5.35;;;2.67;;
59193;SDS011;44967;48.598;15.650;2023-12-20T03:51:11;4.00;;;2.45;;
59193;SDS011;44967;48.598;15.650;2023-12-20T03:53:36;13.02;;;4.78;;
59193;SDS011;44967;48.598;15.650;2023-12-20T03:56:02;8.52;;;3.53;;
59193;SDS011;44967;48.598;15.650;2023-12-20T03:58:28;3.15;;;1.83;;
59193;SDS011;44967;48.598;15.650;2023-12-20T04:00:53;7.22;;;3.40;;
59193;SDS011;44967;48.598;15.650;2023-12-20T04:03:19;4.25;;;2.42;;
59193;SDS011;44967;48.598;15.650;2023-12-20T04:05:44;6.85;;;2.80;;
59193;SDS011;44967;48.598;15.650;2023-12-20T04:08:10;2.28;;;1.85;;
59193;SDS011;44967;48.598;15.650;2023-12-20T04:10:36;5.35;;;2.85;;
59193;SDS011;44967;48.598;15.650;2023-12-20T04:13:03;6.60;;;2.58;;
59193;SDS011;44967;48.598;15.650;2023-12-20T04:15:29;10.48;;;3.83;;
59193;SDS011;44967;48.598;15.650;2023-12-20T04:17:55;4.70;;;2.22;;
59193;SDS011;44967;48.598;15.650;2023-12-20T04:20:21;3.03;;;1.92;;
59193;SDS011;44967;48.598;15.650;2023-12-20T04:22:46;3.42;;;1.80;;
59193;SDS011;44967;48.598;15.650;2023-12-20T04:25:12;2.22;;;1.52;;
59193;SDS011;44967;48.598;15.650;2023-12-20T04:27:38;3.67;;;1.80;;
59193;SDS011;44967;48.598;15.650;2023-12-20T04:30:04;2.90;;;2.03;;
59193;SDS011;44967;48.598;15.650;2023-12-20T04:32:30;2.25;;;1.63;;
59193;SDS011;44967;48.598;15.650;2023-12-20T04:34:56;3.13;;;1.90;;
59193;SDS011;44967;48.598;15.650;2023-12-20T04:37:22;2.70;;;1.90;;
59193;SDS011;44967;48.598;15.650;2023-12-20T04:39:48;2.45;;;1.75;;
59193;SDS011;44967;48.598;15.650;2023-12-20T04:42:13;2.70;;;1.85;;
59193;SDS011;44967;48.598;15.650;2023-12-20T04:44:39;2.97;;;1.50;;
59193;SDS011;44967;48.598;15.650;2023-12-20T04:47:05;2.45;;;1.80;;
59193;SDS011;44967;48.598;15.650;2023-12-20T04:49:31;4.53;;;2.00;;
59193;SDS011;44967;48.598;15.650;2023-12-20T04:51:57;3.17;;;1.50;;
59193;SDS011;44967;48.598;15.650;2023-12-20T04:54:22;2.08;;;1.67;;
59193;SDS011;44967;48.598;15.650;2023-12-20T04:56:48;6.80;;;2.05;;
59193;SDS011;44967;48.598;15.650;2023-12-20T04:59:14;2.15;;;1.95;;
59193;SDS011;44967;48.598;15.650;2023-12-20T05:01:40;2.35;;;1.77;;
59193;SDS011;44967;48.598;15.650;2023-12-20T05:04:06;3.67;;;2.30;;
59193;SDS011;44967;48.598;15.650;2023-12-20T05:06:32;3.78;;;2.53;;
59193;SDS011;44967;48.598;15.650;2023-12-20T05:08:58;5.78;;;2.25;;
59193;SDS011;44967;48.598;15.650;2023-12-20T05:11:24;4.68;;;2.50;;
59193;SDS011;44967;48.598;15.650;2023-12-20T05:13:49;3.13;;;1.73;;
59193;SDS011;44967;48.598;15.650;2023-12-20T05:16:16;4.05;;;1.70;;
59193;SDS011;44967;48.598;15.650;2023-12-20T05:18:43;5.82;;;1.92;;
59193;SDS011;44967;48.598;15.650;2023-12-20T05:21:10;2.55;;;1.80;;
59193;SDS011;44967;48.598;15.650;2023-12-20T05:23:35;11.98;;;3.05;;
59193;SDS011;44967;48.598;15.650;2023-12-20T05:26:01;4.20;;;2.22;;
59193;SDS011;44967;48.598;15.650;2023-12-20T05:28:27;5.22;;;2.30;;
59193;SDS011;44967;48.598;15.650;2023-12-20T05:30:55;3.95;;;2.75;;
59193;SDS011;44967;48.598;15.650;2023-12-20T05:33:21;6.43;;;2.40;;
59193;SDS011;44967;48.598;15.650;2023-12-20T05:35:47;5.38;;;2.95;;
59193;SDS011;44967;48.598;15.650;2023-12-20T05:38:13;8.75;;;3.08;;
59193;SDS011;44967;48.598;15.650;2023-12-20T05:40:38;13.10;;;3.70;;
59193;SDS011;44967;48.598;15.650;2023-12-20T05:43:04;4.60;;;3.00;;
59193;SDS011;44967;48.598;15.650;2023-12-20T05:45:29;5.40;;;2.70;;
59193;SDS011;44967;48.598;15.650;2023-12-20T05:47:55;6.25;;;2.45;;
59193;SDS011;44967;48.598;15.650;2023-12-20T05:50:21;2.70;;;2.25;;
59193;SDS011;44967;48.598;15.650;2023-12-20T05:52:46;6.30;;;2.65;;
59193;SDS011;44967;48.598;15.650;2023-12-20T05:55:12;6.57;;;2.83;;
59193;SDS011;44967;48.598;15.650;2023-12-20T05:57:38;5.45;;;3.92;;
59193;SDS011;44967;48.598;15.650;2023-12-20T06:00:04;4.85;;;2.40;;
59193;SDS011;44967;48.598;15.650;2023-12-20T06:02:30;4.32;;;2.97;;
59193;SDS011;44967;48.598;15.650;2023-12-20T06:04:55;3.97;;;3.05;;
59193;SDS011;44967;48.598;15.650;2023-12-20T06:07:21;4.30;;;2.42;;
59193;SDS011;44967;48.598;15.650;2023-12-20T06:09:47;7.32;;;2.92;;
59193;SDS011;44967;48.598;15.650;2023-12-20T06:12:12;4.78;;;2.50;;
59193;SDS011;44967;48.598;15.650;2023-12-20T06:14:38;4.43;;;2.50;;
59193;SDS011;44967;48.598;15.650;2023-12-20T06:17:04;4.30;;;2.50;;
59193;SDS011;44967;48.598;15.650;2023-12-20T06:19:30;4.78;;;2.60;;
59193;SDS011;44967;48.598;15.650;2023-12-20T06:21:56;4.55;;;2.75;;
59193;SDS011;44967;48.598;15.650;2023-12-20T06:24:22;5.68;;;2.80;;
59193;SDS011;44967;48.598;15.650;2023-12-20T06:26:47;5.20;;;2.70;;
59193;SDS011;44967;48.598;15.650;2023-12-20T06:29:13;6.00;;;3.17;;
59193;SDS011;44967;48.598;15.650;2023-12-20T06:31:39;3.63;;;2.53;;
59193;SDS011;44967;48.598;15.650;2023-12-20T06:34:05;5.55;;;2.83;;
59193;SDS011;44967;48.598;15.650;2023-12-20T06:36:31;3.20;;;2.42;;
59193;SDS011;44967;48.598;15.650;2023-12-20T06:38:56;4.60;;;2.85;;
59193;SDS011;44967;48.598;15.650;2023-12-20T06:41:23;4.63;;;3.15;;
59193;SDS011;44967;48.598;15.650;2023-12-20T06:43:50;7.13;;;2.90;;
59193;SDS011;44967;48.598;15.650;2023-12-20T06:46:17;3.78;;;2.60;;
59193;SDS011;44967;48.598;15.650;2023-12-20T06:48:43;4.13;;;2.88;;
59193;SDS011;44967;48.598;15.650;2023-12-20T06:51:10;3.65;;;2.67;;
59193;SDS011;44967;48.598;15.650;2023-12-20T06:53:41;4.95;;;2.78;;
59193;SDS011;44967;48.598;15.650;2023-12-20T06:56:06;6.65;;;3.25;;
59193;SDS011;44967;48.598;15.650;2023-12-20T06:58:32;3.78;;;2.50;;
59193;SDS011;44967;48.598;15.650;2023-12-20T07:00:58;4.53;;;2.90;;
59193;SDS011;44967;48.598;15.650;2023-12-20T07:03:24;3.35;;;2.38;;
59193;SDS011;44967;48.598;15.650;2023-12-20T07:05:49;5.03;;;3.10;;
59193;SDS011;44967;48.598;15.650;2023-12-20T07:08:15;3.22;;;2.45;;
59193;SDS011;44967;48.598;15.650;2023-12-20T07:10:41;3.72;;;2.63;;
59193;SDS011;44967;48.598;15.650;2023-12-20T07:13:07;4.95;;;2.97;;
59193;SDS011;44967;48.598;15.650;2023-12-20T07:15:33;3.80;;;2.80;;
59193;SDS011;44967;48.598;15.650;2023-12-20T07:17:59;3.45;;;2.80;;
59193;SDS011;44967;48.598;15.650;2023-12-20T07:20:26;4.03;;;2.65;;
59193;SDS011;44967;48.598;15.650;2023-12-20T07:22:51;3.63;;;2.30;;
59193;SDS011;44967;48.598;15.650;2023-12-20T07:25:17;3.35;;;2.47;;
59193;SDS011;44967;48.598;15.650;2023-12-20T07:27:43;3.80;;;2.90;;
59193;SDS011;44967;48.598;15.650;2023-12-20T07:30:09;4.35;;;2.70;;
59193;SDS011;44967;48.598;15.650;2023-12-20T07:32:35;4.65;;;2.75;;
59193;SDS011;44967;48.598;15.650;2023-12-20T07:35:01;4.38;;;2.53;;
59193;SDS011;44967;48.598;15.650;2023-12-20T07:37:28;3.53;;;2.50;;
59193;SDS011;44967;48.598;15.650;2023-12-20T07:39:53;4.18;;;3.15;;
59193;SDS011;44967;48.598;15.650;2023-12-20T07:42:19;4.60;;;2.80;;
59193;SDS011;44967;48.598;15.650;2023-12-20T07:44:47;4.70;;;3.35;;
59193;SDS011;44967;48.598;15.650;2023-12-20T07:47:12;5.00;;;3.78;;
59193;SDS011;44967;48.598;15.650;2023-12-20T07:49:40;2.47;;;2.25;;
59193;SDS011;44967;48.598;15.650;2023-12-20T07:52:06;4.65;;;3.00;;
59193;SDS011;44967;48.598;15.650;2023-12-20T07:54:33;4.45;;;2.70;;
59193;SDS011;44967;48.598;15.650;2023-12-20T07:56:59;4.65;;;3.15;;
59193;SDS011;44967;48.598;15.650;2023-12-20T07:59:24;3.25;;;2.70;;
59193;SDS011;44967;48.598;15.650;2023-12-20T08:01:50;5.20;;;3.17;;
59193;SDS011;44967;48.598;15.650;2023-12-20T08:04:16;3.47;;;2.88;;
59193;SDS011;44967;48.598;15.650;2023-12-20T08:06:41;5.45;;;2.22;;
59193;SDS011;44967;48.598;15.650;2023-12-20T08:09:07;4.32;;;2.72;;
59193;SDS011;44967;48.598;15.650;2023-12-20T08:11:33;2.53;;;2.30;;
59193;SDS011;44967;48.598;15.650;2023-12-20T08:13:58;4.57;;;2.67;;
59193;SDS011;44967;48.598;15.650;2023-12-20T08:16:24;3.22;;;2.65;;
59193;SDS011;44967;48.598;15.650;2023-12-20T08:18:50;3.20;;;2.53;;
59193;SDS011;44967;48.598;15.650;2023-12-20T08:21:16;4.30;;;2.67;;
59193;SDS011;44967;48.598;15.650;2023-12-20T08:23:45;3.05;;;2.28;;
59193;SDS011;44967;48.598;15.650;2023-12-20T08:26:11;3.40;;;2.65;;
59193;SDS011;44967;48.598;15.650;2023-12-20T08:28:36;3.22;;;2.55;;
59193;SDS011;44967;48.598;15.650;2023-12-20T08:31:02;2.92;;;2.45;;
59193;SDS011;44967;48.598;15.650;2023-12-20T08:33:28;2.85;;;2.10;;
59193;SDS011;44967;48.598;15.650;2023-12-20T08:35:54;2.42;;;2.03;;
59193;SDS011;44967;48.598;15.650;2023-12-20T08:38:19;5.32;;;2.80;;
59193;SDS011;44967;48.598;15.650;2023-12-20T08:40:46;3.30;;;2.38;;
59193;SDS011;44967;48.598;15.650;2023-12-20T08:43:11;4.70;;;2.58;;
59193;SDS011;44967;48.598;15.650;2023-12-20T08:45:37;3.65;;;2.17;;
59193;SDS011;44967;48.598;15.650;2023-12-20T08:48:04;2.60;;;2.20;;
59193;SDS011;44967;48.598;15.650;2023-12-20T08:50:30;2.47;;;2.28;;
59193;SDS011;44967;48.598;15.650;2023-12-20T08:52:56;2.42;;;2.15;;
59193;SDS011;44967;48.598;15.650;2023-12-20T08:55:21;4.80;;;2.08;;
59193;SDS011;44967;48.598;15.650;2023-12-20T08:57:47;1.83;;;1.42;;
59193;SDS011;44967;48.598;15.650;2023-12-20T09:00:14;1.50;;;1.40;;
59193;SDS011;44967;48.598;15.650;2023-12-20T09:02:41;1.90;;;1.48;;
59193;SDS011;44967;48.598;15.650;2023-12-20T09:05:07;1.63;;;1.50;;
59193;SDS011;44967;48.598;15.650;2023-12-20T09:07:33;2.80;;;1.65;;
59193;SDS011;44967;48.598;15.650;2023-12-20T09:09:58;1.88;;;1.70;;
59193;SDS011;44967;48.598;15.650;2023-12-20T09:12:24;2.05;;;1.20;;
59193;SDS011;44967;48.598;15.650;2023-12-20T09:14:50;1.58;;;1.48;;
59193;SDS011;44967;48.598;15.650;2023-12-20T09:17:18;1.40;;;1.30;;
59193;SDS011;44967;48.598;15.650;2023-12-20T09:19:44;1.45;;;1.10;;
59193;SDS011;44967;48.598;15.650;2023-12-20T09:22:11;2.08;;;1.30;;
59193;SDS011;44967;48.598;15.650;2023-12-20T09:24:38;2.25;;;1.50;;
59193;SDS011;44967;48.598;15.650;2023-12-20T09:27:05;1.20;;;0.90;;
59193;SDS011;44967;48.598;15.650;2023-12-20T09:29:31;1.15;;;1.02;;
59193;SDS011;44967;48.598;15.650;2023-12-20T09:31:57;3.15;;;1.05;;
59193;SDS011;44967;48.598;15.650;2023-12-20T09:34:23;0.88;;;0.88;;
59193;SDS011;44967;48.598;15.650;2023-12-20T09:36:51;1.05;;;1.00;;
59193;SDS011;44967;48.598;15.650;2023-12-20T09:39:18;0.80;;;0.80;;
59193;SDS011;44967;48.598;15.650;2023-12-20T09:41:51;1.00;;;0.90;;
59193;SDS011;44967;48.598;15.650;2023-12-20T09:44:26;0.85;;;0.63;;
59193;SDS011;44967;48.598;15.650;2023-12-20T09:46:52;1.30;;;0.75;;
59193;SDS011;44967;48.598;15.650;2023-12-20T09:49:20;0.82;;;0.57;;
59193;SDS011;44967;48.598;15.650;2023-12-20T09:51:47;0.88;;;0.80;;
59193;SDS011;44967;48.598;15.650;2023-12-20T09:54:19;0.77;;;0.70;;
59193;SDS011;44967;48.598;15.650;2023-12-20T09:56:46;1.00;;;0.70;;
59193;SDS011;44967;48.598;15.650;2023-12-20T09:59:13;1.10;;;0.45;;
59193;SDS011;44967;48.598;15.650;2023-12-20T10:01:39;0.70;;;0.70;;
59193;SDS011;44967;48.598;15.650;2023-12-20T10:04:07;1.10;;;0.82;;
59193;SDS011;44967;48.598;15.650;2023-12-20T10:06:35;0.40;;;0.40;;
59193;SDS011;44967;48.598;15.650;2023-12-20T10:09:02;0.57;;;0.57;;
59193;SDS011;44967;48.598;15.650;2023-12-20T10:11:27;0.70;;;0.60;;
59193;SDS011;44967;48.598;15.650;2023-12-20T10:13:58;0.55;;;0.50;;
59193;SDS011;44967;48.598;15.650;2023-12-20T10:16:25;0.57;;;0.57;;
59193;SDS011;44967;48.598;15.650;2023-12-20T10:18:52;0.80;;;0.80;;
59193;SDS011;44967;48.598;15.650;2023-12-20T10:21:19;0.40;;;0.40;;
59193;SDS011;44967;48.598;15.650;2023-12-20T10:23:45;0.85;;;0.50;;
59193;SDS011;44967;48.598;15.650;2023-12-20T10:26:18;0.50;;;0.50;;
59193;SDS011;44967;48.598;15.650;2023-12-20T10:28:46;0.50;;;0.50;;
59193;SDS011;44967;48.598;15.650;2023-12-20T10:31:28;0.73;;;0.57;;
59193;SDS011;44967;48.598;15.650;2023-12-20T10:33:59;0.60;;;0.52;;
59193;SDS011;44967;48.598;15.650;2023-12-20T10:36:26;0.30;;;0.30;;
59193;SDS011;44967;48.598;15.650;2023-12-20T10:38:53;0.75;;;0.57;;
59193;SDS011;44967;48.598;15.650;2023-12-20T10:41:27;0.40;;;0.40;;
59193;SDS011;44967;48.598;15.650;2023-12-20T10:44:04;0.68;;;0.50;;
59193;SDS011;44967;48.598;15.650;2023-12-20T10:46:30;0.77;;;0.45;;
59193;SDS011;44967;48.598;15.650;2023-12-20T10:49:02;0.50;;;0.50;;
59193;SDS011;44967;48.598;15.650;2023-12-20T10:51:28;0.55;;;0.55;;
59193;SDS011;44967;48.598;15.650;2023-12-20T10:53:56;0.82;;;0.52;;
59193;SDS011;44967;48.598;15.650;2023-12-20T10:56:22;0.30;;;0.30;;
59193;SDS011;44967;48.598;15.650;2023-12-20T10:58:49;0.55;;;0.55;;
59193;SDS011;44967;48.598;15.650;2023-12-20T11:01:17;0.40;;;0.40;;
59193;SDS011;44967;48.598;15.650;2023-12-20T11:03:46;0.55;;;0.43;;
59193;SDS011;44967;48.598;15.650;2023-12-20T11:06:33;0.65;;;0.60;;
59193;SDS011;44967;48.598;15.650;2023-12-20T11:09:22;0.30;;;0.30;;
59193;SDS011;44967;48.598;15.650;2023-12-20T11:14:36;1.38;;;0.40;;
59193;SDS011;44967;48.598;15.650;2023-12-20T11:17:11;0.30;;;0.30;;
59193;SDS011;44967;48.598;15.650;2023-12-20T11:22:27;0.55;;;0.35;;
59193;SDS011;44967;48.598;15.650;2023-12-20T11:25:06;0.75;;;0.32;;
59193;SDS011;44967;48.598;15.650;2023-12-20T11:27:36;0.30;;;0.25;;
59193;SDS011;44967;48.598;15.650;2023-12-20T11:30:06;0.28;;;0.22;;
59193;SDS011;44967;48.598;15.650;2023-12-20T11:32:33;0.30;;;0.30;;
59193;SDS011;44967;48.598;15.650;2023-12-20T11:37:32;0.20;;;0.20;;
59193;SDS011;44967;48.598;15.650;2023-12-20T11:40:02;0.30;;;0.20;;
59193;SDS011;44967;48.598;15.650;2023-12-20T11:42:40;0.30;;;0.30;;
59193;SDS011;44967;48.598;15.650;2023-12-20T11:45:11;0.25;;;0.25;;
59193;SDS011;44967;48.598;15.650;2023-12-20T11:47:42;0.22;;;0.22;;
59193;SDS011;44967;48.598;15.650;2023-12-20T11:50:09;0.20;;;0.20;;
59193;SDS011;44967;48.598;15.650;2023-12-20T11:52:35;0.20;;;0.20;;
59193;SDS011;44967;48.598;15.650;2023-12-20T11:55:01;0.20;;;0.20;;
59193;SDS011;44967;48.598;15.650;2023-12-20T11:57:26;0.32;;;0.30;;
59193;SDS011;44967;48.598;15.650;2023-12-20T11:59:52;0.20;;;0.20;;
59193;SDS011;44967;48.598;15.650;2023-12-20T12:02:18;0.30;;;0.30;;
59193;SDS011;44967;48.598;15.650;2023-12-20T12:04:44;0.20;;;0.20;;
59193;SDS011;44967;48.598;15.650;2023-12-20T12:07:10;0.20;;;0.20;;
59193;SDS011;44967;48.598;15.650;2023-12-20T12:09:36;0.38;;;0.38;;
59193;SDS011;44967;48.598;15.650;2023-12-20T12:12:02;0.30;;;0.30;;
59193;SDS011;44967;48.598;15.650;2023-12-20T12:14:28;0.30;;;0.30;;
59193;SDS011;44967;48.598;15.650;2023-12-20T12:16:54;0.30;;;0.30;;
59193;SDS011;44967;48.598;15.650;2023-12-20T12:19:20;0.20;;;0.20;;
59193;SDS011;44967;48.598;15.650;2023-12-20T12:21:50;0.30;;;0.30;;
59193;SDS011;44967;48.598;15.650;2023-12-20T12:24:20;0.20;;;0.20;;
59193;SDS011;44967;48.598;15.650;2023-12-20T12:26:53;0.20;;;0.20;;
59193;SDS011;44967;48.598;15.650;2023-12-20T12:29:22;0.25;;;0.20;;
59193;SDS011;44967;48.598;15.650;2023-12-20T12:31:50;0.30;;;0.30;;
59193;SDS011;44967;48.598;15.650;2023-12-20T12:34:17;0.20;;;0.20;;
59193;SDS011;44967;48.598;15.650;2023-12-20T12:36:43;0.20;;;0.20;;
59193;SDS011;44967;48.598;15.650;2023-12-20T12:39:14;0.28;;;0.20;;
59193;SDS011;44967;48.598;15.650;2023-12-20T12:41:41;0.30;;;0.30;;
59193;SDS011;44967;48.598;15.650;2023-12-20T12:44:06;0.30;;;0.30;;
59193;SDS011;44967;48.598;15.650;2023-12-20T12:46:32;0.20;;;0.20;;
59193;SDS011;44967;48.598;15.650;2023-12-20T12:48:58;0.35;;;0.20;;
59193;SDS011;44967;48.598;15.650;2023-12-20T12:51:25;0.20;;;0.20;;
59193;SDS011;44967;48.598;15.650;2023-12-20T12:53:51;0.95;;;0.50;;
59193;SDS011;44967;48.598;15.650;2023-12-20T12:56:16;0.30;;;0.30;;
59193;SDS011;44967;48.598;15.650;2023-12-20T12:58:42;0.40;;;0.40;;
59193;SDS011;44967;48.598;15.650;2023-12-20T13:01:08;0.22;;;0.22;;
59193;SDS011;44967;48.598;15.650;2023-12-20T13:03:34;0.95;;;0.40;;
59193;SDS011;44967;48.598;15.650;2023-12-20T13:06:01;0.22;;;0.22;;
59193;SDS011;44967;48.598;15.650;2023-12-20T13:08:26;0.20;;;0.20;;
59193;SDS011;44967;48.598;15.650;2023-12-20T13:10:54;0.40;;;0.40;;
59193;SDS011;44967;48.598;15.650;2023-12-20T13:13:21;0.30;;;0.20;;
59193;SDS011;44967;48.598;15.650;2023-12-20T13:15:46;0.30;;;0.30;;
59193;SDS011;44967;48.598;15.650;2023-12-20T13:18:17;0.10;;;0.10;;
59193;SDS011;44967;48.598;15.650;2023-12-20T13:20:44;0.20;;;0.20;;
59193;SDS011;44967;48.598;15.650;2023-12-20T13:23:10;0.22;;;0.20;;
59193;SDS011;44967;48.598;15.650;2023-12-20T13:25:36;0.30;;;0.30;;
59193;SDS011;44967;48.598;15.650;2023-12-20T13:28:02;0.22;;;0.22;;
59193;SDS011;44967;48.598;15.650;2023-12-20T13:30:30;0.20;;;0.20;;
59193;SDS011;44967;48.598;15.650;2023-12-20T13:32:55;0.10;;;0.10;;
59193;SDS011;44967;48.598;15.650;2023-12-20T13:35:21;0.22;;;0.20;;
59193;SDS011;44967;48.598;15.650;2023-12-20T13:37:47;1.45;;;0.20;;
59193;SDS011;44967;48.598;15.650;2023-12-20T13:40:13;0.20;;;0.20;;
59193;SDS011;44967;48.598;15.650;2023-12-20T13:42:39;0.20;;;0.20;;
59193;SDS011;44967;48.598;15.650;2023-12-20T13:45:05;0.35;;;0.20;;
59193;SDS011;44967;48.598;15.650;2023-12-20T13:47:32;1.10;;;0.30;;
59193;SDS011;44967;48.598;15.650;2023-12-20T13:49:58;0.20;;;0.20;;
59193;SDS011;44967;48.598;15.650;2023-12-20T13:52:24;0.20;;;0.20;;
59193;SDS011;44967;48.598;15.650;2023-12-20T13:54:50;0.32;;;0.20;;
59193;SDS011;44967;48.598;15.650;2023-12-20T13:57:15;0.80;;;0.20;;
59193;SDS011;44967;48.598;15.650;2023-12-20T13:59:41;0.20;;;0.20;;
59193;SDS011;44967;48.598;15.650;2023-12-20T14:02:06;0.20;;;0.20;;
59193;SDS011;44967;48.598;15.650;2023-12-20T14:04:32;0.80;;;0.20;;
59193;SDS011;44967;48.598;15.650;2023-12-20T14:06:58;0.17;;;0.17;;
59193;SDS011;44967;48.598;15.650;2023-12-20T14:09:23;0.13;;;0.13;;
59193;SDS011;44967;48.598;15.650;2023-12-20T14:11:50;0.20;;;0.20;;
59193;SDS011;44967;48.598;15.650;2023-12-20T14:14:16;0.20;;;0.20;;
59193;SDS011;44967;48.598;15.650;2023-12-20T14:16:41;0.28;;;0.28;;
59193;SDS011;44967;48.598;15.650;2023-12-20T14:19:10;0.17;;;0.17;;
59193;SDS011;44967;48.598;15.650;2023-12-20T14:21:36;0.20;;;0.20;;
59193;SDS011;44967;48.598;15.650;2023-12-20T14:24:02;0.70;;;0.20;;
59193;SDS011;44967;48.598;15.650;2023-12-20T14:26:29;0.40;;;0.20;;
59193;SDS011;44967;48.598;15.650;2023-12-20T14:28:57;0.20;;;0.20;;
59193;SDS011;44967;48.598;15.650;2023-12-20T14:31:22;0.20;;;0.20;;
59193;SDS011;44967;48.598;15.650;2023-12-20T14:33:51;0.20;;;0.20;;
59193;SDS011;44967;48.598;15.650;2023-12-20T14:36:18;0.20;;;0.20;;